Time;durP1;ratioP1;P1;durP2;ratioP2;P2;SDS_P1;SDS_P2;PMS_P1;PMS_P2;Temp;Humidity;BMP_temperature;BMP_pressure;BME280_temperature;BME280_humidity;BME280_pressure;Samples;Min_cycle;Max_cycle;Signal;HPM_P1;HPM_P2
2021/11/06 00:00:33;;;;;;;39.50;11.73;;;10.00;90.20;;;;;;5039164;28;20910;-61
2021/11/06 00:02:58;;;;;;;40.63;12.00;;;10.00;90.20;;;;;;5025445;28;20084;-62
2021/11/06 00:05:24;;;;;;;34.92;11.02;;;10.00;90.20;;;;;;5041387;28;20040;-61
2021/11/06 00:07:50;;;;;;;46.28;12.23;;;10.00;90.20;;;;;;5023890;28;20021;-61
2021/11/06 00:10:15;;;;;;;36.05;11.85;;;9.90;90.10;;;;;;5039400;28;20535;-61
2021/11/06 00:12:41;;;;;;;39.67;12.55;;;9.90;90.20;;;;;;5039073;28;20548;-62
2021/11/06 00:15:07;;;;;;;57.65;14.70;;;9.90;90.10;;;;;;5038567;28;20049;-62
2021/11/06 00:17:33;;;;;;;108.18;20.42;;;9.90;90.10;;;;;;5038405;28;20520;-61
2021/11/06 00:19:58;;;;;;;122.78;21.13;;;9.90;90.00;;;;;;5040899;28;20175;-61
2021/11/06 00:22:24;;;;;;;71.55;15.25;;;9.90;90.00;;;;;;5039008;28;20084;-61
2021/11/06 00:24:49;;;;;;;54.70;13.45;;;9.90;90.10;;;;;;5039763;28;20048;-61
2021/11/06 00:27:15;;;;;;;69.88;15.75;;;9.90;90.10;;;;;;5040324;28;20049;-61
2021/11/06 00:29:40;;;;;;;65.32;14.15;;;9.80;90.10;;;;;;5041325;28;20132;-61
2021/11/06 00:32:07;;;;;;;67.13;13.80;;;9.90;90.10;;;;;;5041466;28;20032;-61
2021/11/06 00:34:32;;;;;;;54.95;13.93;;;9.80;90.10;;;;;;5040334;28;20025;-61
2021/11/06 00:36:58;;;;;;;63.30;13.25;;;9.80;90.20;;;;;;5040858;28;20040;-62
2021/11/06 00:39:23;;;;;;;63.65;14.82;;;9.80;90.20;;;;;;5021598;28;20144;-61
2021/11/06 00:41:49;;;;;;;46.17;12.50;;;9.80;90.30;;;;;;5037870;28;20150;-61
2021/11/06 00:44:14;;;;;;;72.70;13.85;;;9.80;90.30;;;;;;5042676;28;20032;-61
2021/11/06 00:46:40;;;;;;;48.60;12.45;;;9.80;90.30;;;;;;5043336;28;20033;-62
2021/11/06 00:49:06;;;;;;;53.58;13.07;;;9.80;90.30;;;;;;5042654;28;21484;-61
2021/11/06 00:51:31;;;;;;;53.78;12.15;;;9.80;90.40;;;;;;5038438;28;20029;-62
2021/11/06 00:53:57;;;;;;;43.35;12.90;;;9.80;90.40;;;;;;5038687;28;20056;-62
2021/11/06 00:56:22;;;;;;;41.25;10.93;;;9.80;90.40;;;;;;5042623;28;20040;-61
2021/11/06 00:58:48;;;;;;;40.78;11.25;;;9.70;90.50;;;;;;5042427;28;20097;-61
2021/11/06 01:01:13;;;;;;;49.53;12.30;;;9.70;90.50;;;;;;5042514;28;20053;-61
2021/11/06 01:03:39;;;;;;;45.53;12.52;;;9.70;90.50;;;;;;5036497;28;20091;-61
2021/11/06 01:06:04;;;;;;;53.20;12.55;;;9.70;90.50;;;;;;5041566;28;20032;-61
2021/11/06 01:08:30;;;;;;;47.95;11.98;;;9.90;90.60;;;;;;5039274;28;20440;-62
2021/11/06 01:10:55;;;;;;;40.15;11.95;;;9.70;90.60;;;;;;5041768;28;20429;-61
2021/11/06 01:13:21;;;;;;;55.88;12.40;;;9.70;90.60;;;;;;5041928;28;20024;-61
2021/11/06 01:15:46;;;;;;;37.40;11.23;;;9.70;90.60;;;;;;5041773;28;20037;-61
2021/11/06 01:18:12;;;;;;;36.50;11.88;;;9.70;90.60;;;;;;5039647;28;20021;-61
2021/11/06 01:20:37;;;;;;;44.38;12.07;;;9.70;90.70;;;;;;5041340;28;20128;-61
2021/11/06 01:23:03;;;;;;;43.25;10.80;;;9.70;91.00;;;;;;5040708;28;20151;-61
2021/11/06 01:25:28;;;;;;;42.10;10.98;;;9.70;90.80;;;;;;5040786;28;20060;-61
2021/11/06 01:27:54;;;;;;;39.47;10.07;;;9.70;90.80;;;;;;5041173;28;20029;-62
2021/11/06 01:30:19;;;;;;;45.60;12.27;;;9.70;90.80;;;;;;5040690;28;20484;-61
2021/11/06 01:32:46;;;;;;;49.35;13.18;;;9.70;90.90;;;;;;5036042;28;20045;-61
2021/11/06 01:35:12;;;;;;;30.67;11.60;;;9.70;90.90;;;;;;5039028;28;20029;-61
2021/11/06 01:37:38;;;;;;;53.25;12.07;;;9.70;90.90;;;;;;5022145;28;20029;-61
2021/11/06 01:40:05;;;;;;;36.15;10.98;;;9.70;90.90;;;;;;5041249;28;20036;-61
2021/11/06 01:42:31;;;;;;;35.92;10.50;;;9.70;91.00;;;;;;5037937;28;20037;-61
2021/11/06 01:44:57;;;;;;;34.25;10.65;;;9.70;91.00;;;;;;5022240;28;20040;-62
2021/11/06 01:47:22;;;;;;;38.72;10.57;;;9.70;91.00;;;;;;5039243;28;20033;-62
2021/11/06 01:49:48;;;;;;;34.13;10.35;;;9.60;91.00;;;;;;5040378;28;20459;-61
2021/11/06 01:52:13;;;;;;;31.10;11.05;;;9.70;91.10;;;;;;5039419;28;20701;-62
2021/11/06 01:54:39;;;;;;;37.58;11.30;;;9.70;91.00;;;;;;5040717;28;20051;-61
2021/11/06 01:57:04;;;;;;;28.85;10.70;;;9.60;91.10;;;;;;5021434;28;20028;-61
2021/11/06 01:59:30;;;;;;;32.13;11.20;;;9.70;91.10;;;;;;5028297;28;20052;-61
2021/11/06 02:01:56;;;;;;;29.13;10.15;;;9.70;91.20;;;;;;5026546;28;20032;-61
2021/11/06 02:04:22;;;;;;;26.33;9.57;;;9.60;91.10;;;;;;5042942;28;20035;-62
2021/11/06 02:06:48;;;;;;;31.30;10.90;;;9.60;91.10;;;;;;5044243;28;20099;-61
2021/11/06 02:09:14;;;;;;;37.03;10.65;;;9.60;91.10;;;;;;5024203;28;20029;-61
2021/11/06 02:11:39;;;;;;;28.50;9.95;;;9.60;91.20;;;;;;5044273;28;20063;-61
2021/11/06 02:14:05;;;;;;;29.13;10.13;;;9.60;91.20;;;;;;5025665;28;20427;-61
2021/11/06 02:16:31;;;;;;;25.52;9.80;;;9.60;91.20;;;;;;5044654;28;20677;-61
2021/11/06 02:18:56;;;;;;;23.30;9.77;;;9.60;91.20;;;;;;5027830;28;20047;-62
2021/11/06 02:21:22;;;;;;;21.50;8.90;;;9.60;91.20;;;;;;5042358;28;20116;-61
2021/11/06 02:23:48;;;;;;;23.63;10.10;;;9.60;91.20;;;;;;5041519;28;20072;-61
2021/11/06 02:26:14;;;;;;;22.92;9.75;;;9.60;91.20;;;;;;5042498;28;20148;-61
2021/11/06 02:28:43;;;;;;;26.48;8.85;;;9.60;91.20;;;;;;5044737;28;20876;-62
2021/11/06 02:31:09;;;;;;;27.33;9.43;;;9.60;91.20;;;;;;5043994;28;20100;-61
2021/11/06 02:33:34;;;;;;;21.25;9.60;;;9.60;91.20;;;;;;5041359;28;20765;-61
2021/11/06 02:36:00;;;;;;;16.75;8.88;;;9.60;91.20;;;;;;5043017;28;20044;-61
2021/11/06 02:38:26;;;;;;;23.63;8.10;;;9.60;91.30;;;;;;5041302;28;20041;-61
2021/11/06 02:40:51;;;;;;;20.98;8.70;;;9.60;91.30;;;;;;5044146;28;20036;-61
2021/11/06 02:43:17;;;;;;;22.95;8.95;;;9.60;91.30;;;;;;5042748;28;20043;-62
2021/11/06 02:45:43;;;;;;;23.15;9.02;;;9.60;91.30;;;;;;5043116;28;20082;-62
2021/11/06 02:48:08;;;;;;;23.63;8.77;;;9.60;91.30;;;;;;5040916;28;20116;-61
2021/11/06 02:50:34;;;;;;;21.60;8.65;;;9.60;91.30;;;;;;5041042;28;20131;-61
2021/11/06 02:52:59;;;;;;;22.23;9.02;;;9.60;91.30;;;;;;5042000;28;20033;-61
2021/11/06 02:55:25;;;;;;;19.88;8.20;;;9.60;91.30;;;;;;5045716;28;20036;-62
2021/11/06 02:57:50;;;;;;;20.50;9.45;;;9.60;91.30;;;;;;5025492;28;20059;-61
2021/11/06 03:00:16;;;;;;;32.55;9.25;;;9.60;91.30;;;;;;5044485;28;20104;-61
2021/11/06 03:02:42;;;;;;;21.00;8.15;;;9.60;91.30;;;;;;5038687;28;20029;-61
2021/11/06 03:05:09;;;;;;;17.55;8.85;;;9.60;91.30;;;;;;5041559;28;20048;-61
2021/11/06 03:07:35;;;;;;;16.02;8.82;;;9.60;91.30;;;;;;5042277;28;20086;-61
2021/11/06 03:10:00;;;;;;;20.48;8.82;;;9.50;91.30;;;;;;5041298;28;20025;-62
2021/11/06 03:12:26;;;;;;;18.85;8.55;;;9.50;91.30;;;;;;5042051;28;20072;-62
2021/11/06 03:14:51;;;;;;;20.95;9.45;;;9.60;91.30;;;;;;5042536;28;20033;-61
2021/11/06 03:17:17;;;;;;;18.33;8.98;;;9.60;91.30;;;;;;5040195;28;20059;-61
2021/11/06 03:19:43;;;;;;;21.90;8.57;;;9.50;91.40;;;;;;5042557;28;20024;-61
2021/11/06 03:22:10;;;;;;;22.13;8.90;;;9.60;91.40;;;;;;5041225;28;20507;-61
2021/11/06 03:24:36;;;;;;;19.10;8.43;;;9.50;91.30;;;;;;5042734;28;20032;-61
2021/11/06 03:27:02;;;;;;;16.65;7.78;;;9.60;91.30;;;;;;5041240;28;20116;-61
2021/11/06 03:29:27;;;;;;;18.27;8.82;;;9.50;91.30;;;;;;5041585;28;20128;-62
2021/11/06 03:31:53;;;;;;;19.33;8.90;;;9.50;91.30;;;;;;5042117;28;20069;-61
2021/11/06 03:34:18;;;;;;;22.75;9.20;;;9.50;91.30;;;;;;5040617;28;20049;-61
2021/11/06 03:36:44;;;;;;;17.15;8.73;;;9.60;91.30;;;;;;5044762;28;20140;-61
2021/11/06 03:39:09;;;;;;;17.90;8.35;;;9.50;91.30;;;;;;5025546;28;20037;-61
2021/11/06 03:41:35;;;;;;;19.83;8.23;;;9.60;91.30;;;;;;5042123;28;20484;-61
2021/11/06 03:44:01;;;;;;;17.98;9.00;;;9.50;91.30;;;;;;5040227;28;20097;-61
2021/11/06 03:46:26;;;;;;;16.20;8.13;;;9.50;91.30;;;;;;5043695;28;20044;-61
2021/11/06 03:48:53;;;;;;;15.70;8.95;;;9.50;91.30;;;;;;5045199;28;20329;-61
2021/11/06 03:51:18;;;;;;;20.25;10.20;;;9.50;91.30;;;;;;5041849;28;20483;-61
2021/11/06 03:53:44;;;;;;;23.02;10.05;;;9.50;91.30;;;;;;5039184;28;20199;-61
2021/11/06 03:56:09;;;;;;;21.98;10.75;;;9.50;91.30;;;;;;5042742;28;20041;-61
2021/11/06 03:58:35;;;;;;;17.83;9.90;;;9.50;91.30;;;;;;5042824;28;20136;-61
2021/11/06 04:01:01;;;;;;;21.85;10.68;;;9.50;91.30;;;;;;5044049;28;20050;-61
2021/11/06 04:03:26;;;;;;;18.85;8.93;;;9.50;91.30;;;;;;5041949;28;20029;-61
2021/11/06 04:05:52;;;;;;;23.25;9.95;;;9.50;91.30;;;;;;5041490;28;20041;-62
2021/11/06 04:08:17;;;;;;;18.17;8.70;;;9.50;91.30;;;;;;5038671;28;20059;-61
2021/11/06 04:10:43;;;;;;;21.38;9.80;;;9.50;91.30;;;;;;5042243;28;20537;-62
2021/11/06 04:13:08;;;;;;;21.60;9.23;;;9.50;91.30;;;;;;5041613;28;20025;-61
2021/11/06 04:15:34;;;;;;;22.90;9.23;;;9.50;91.30;;;;;;5026596;28;21244;-61
2021/11/06 04:18:00;;;;;;;19.75;9.70;;;9.50;91.30;;;;;;5041313;28;20048;-62
2021/11/06 04:20:26;;;;;;;17.95;8.95;;;9.50;91.30;;;;;;5041131;28;20033;-61
2021/11/06 04:22:51;;;;;;;14.93;9.35;;;9.50;91.30;;;;;;5040810;28;20064;-61
2021/11/06 04:25:17;;;;;;;16.60;9.48;;;9.40;91.20;;;;;;5041962;28;20087;-62
2021/11/06 04:27:43;;;;;;;15.23;8.43;;;9.40;91.20;;;;;;5044294;28;20051;-61
2021/11/06 04:30:09;;;;;;;18.05;9.60;;;9.40;91.20;;;;;;5041841;28;20029;-61
2021/11/06 04:32:34;;;;;;;17.70;10.00;;;9.40;91.20;;;;;;5038898;28;20380;-61
2021/11/06 04:35:00;;;;;;;14.88;9.95;;;9.40;91.30;;;;;;5041724;28;20031;-61
2021/11/06 04:37:25;;;;;;;15.88;9.27;;;9.40;91.30;;;;;;5040597;28;20047;-61
2021/11/06 04:39:51;;;;;;;20.85;10.23;;;9.40;91.30;;;;;;5041396;28;20036;-61
2021/11/06 04:42:16;;;;;;;19.83;9.25;;;9.40;91.30;;;;;;5039421;28;20032;-62
2021/11/06 04:44:42;;;;;;;14.27;9.02;;;9.30;91.30;;;;;;5037861;28;20045;-61
2021/11/06 04:47:07;;;;;;;16.40;9.35;;;9.30;91.30;;;;;;5040548;28;20033;-62
2021/11/06 04:49:33;;;;;;;15.38;9.70;;;9.30;91.50;;;;;;5039485;28;20052;-61
2021/11/06 04:51:58;;;;;;;14.90;8.98;;;9.30;91.30;;;;;;5038144;28;20025;-62
2021/11/06 04:54:24;;;;;;;24.05;9.95;;;9.30;91.30;;;;;;5041566;28;20073;-61
2021/11/06 04:56:50;;;;;;;16.75;8.68;;;9.30;91.30;;;;;;5039764;28;20037;-61
2021/11/06 04:59:16;;;;;;;13.77;8.68;;;9.30;91.30;;;;;;5040676;28;20021;-61
2021/11/06 05:01:41;;;;;;;17.05;8.50;;;9.30;91.30;;;;;;5040654;28;20145;-61
2021/11/06 05:04:07;;;;;;;15.82;8.70;;;9.30;91.30;;;;;;5040241;28;20033;-61
2021/11/06 05:06:32;;;;;;;16.95;9.27;;;9.30;91.30;;;;;;5043413;28;20033;-61
2021/11/06 05:08:58;;;;;;;18.00;9.02;;;9.20;91.30;;;;;;5038411;28;20021;-61
2021/11/06 05:11:23;;;;;;;13.32;8.35;;;9.20;91.30;;;;;;5038700;28;20057;-61
2021/11/06 05:13:49;;;;;;;14.60;8.38;;;9.20;91.30;;;;;;5039120;28;20024;-62
2021/11/06 05:16:14;;;;;;;14.45;8.75;;;9.20;91.30;;;;;;5038958;28;20045;-61
2021/11/06 05:18:40;;;;;;;14.65;8.80;;;9.20;91.30;;;;;;5041963;28;20443;-61
2021/11/06 05:21:06;;;;;;;15.65;8.38;;;9.20;91.30;;;;;;5038555;28;20031;-61
2021/11/06 05:23:31;;;;;;;19.02;9.38;;;9.20;91.30;;;;;;5041231;28;20053;-62
2021/11/06 05:25:57;;;;;;;16.45;9.05;;;9.20;91.30;;;;;;5040130;28;20041;-61
2021/11/06 05:28:22;;;;;;;19.35;9.25;;;9.20;91.30;;;;;;5039342;28;20092;-62
2021/11/06 05:30:48;;;;;;;17.08;8.70;;;9.20;91.30;;;;;;5041281;28;20092;-61
2021/11/06 05:33:13;;;;;;;45.05;11.40;;;9.10;91.30;;;;;;5039867;28;20116;-61
2021/11/06 05:35:39;;;;;;;76.43;12.30;;;9.30;91.40;;;;;;5042498;28;20132;-61
2021/11/06 05:38:05;;;;;;;130.43;15.88;;;9.20;91.30;;;;;;5023114;28;20542;-61
2021/11/06 05:40:31;;;;;;;109.55;13.85;;;9.10;91.30;;;;;;5039540;28;20136;-61
2021/11/06 05:42:56;;;;;;;95.05;13.63;;;9.10;91.30;;;;;;5040778;28;20041;-61
2021/11/06 05:45:22;;;;;;;162.77;17.20;;;9.10;91.40;;;;;;5041773;28;20077;-61
2021/11/06 05:47:47;;;;;;;104.47;15.48;;;9.10;91.40;;;;;;5042453;28;20048;-61
2021/11/06 05:50:16;;;;;;;82.93;15.23;;;9.10;91.40;;;;;;5040457;28;20052;-62
2021/11/06 05:52:42;;;;;;;103.82;15.38;;;8.90;91.40;;;;;;5039303;28;20057;-61
2021/11/06 05:55:09;;;;;;;106.63;14.80;;;9.10;91.40;;;;;;5024824;28;20130;-61
2021/11/06 05:57:35;;;;;;;111.75;14.52;;;9.10;91.40;;;;;;5041255;28;20520;-61
2021/11/06 06:00:06;;;;;;;85.05;13.77;;;9.10;91.40;;;;;;5043271;28;20112;-62
2021/11/06 06:02:32;;;;;;;98.45;14.07;;;9.10;91.40;;;;;;5037533;28;20460;-61
2021/11/06 06:04:57;;;;;;;73.97;13.75;;;9.10;91.40;;;;;;5039626;28;20049;-61
2021/11/06 06:07:23;;;;;;;113.53;15.57;;;9.10;91.40;;;;;;5037914;28;20025;-61
2021/11/06 06:09:48;;;;;;;78.80;14.18;;;9.10;91.30;;;;;;5041539;28;20041;-61
2021/11/06 06:12:14;;;;;;;114.20;14.23;;;9.10;91.30;;;;;;5040492;28;20134;-61
2021/11/06 06:14:39;;;;;;;78.95;13.95;;;9.10;91.30;;;;;;5041823;28;20112;-61
2021/11/06 06:17:05;;;;;;;71.00;13.65;;;9.10;91.30;;;;;;5040526;28;20030;-62
2021/11/06 06:19:30;;;;;;;70.53;14.88;;;9.10;91.30;;;;;;5039655;28;20037;-61
2021/11/06 06:21:56;;;;;;;75.15;13.40;;;9.10;91.30;;;;;;5039164;28;20186;-64
2021/11/06 06:24:21;;;;;;;79.78;14.45;;;9.10;91.40;;;;;;5023329;28;20112;-61
2021/11/06 06:26:47;;;;;;;71.63;12.50;;;9.10;91.30;;;;;;5040316;28;20263;-61
2021/11/06 06:29:12;;;;;;;50.05;13.32;;;9.10;91.20;;;;;;5041103;28;20521;-61
2021/11/06 06:31:38;;;;;;;63.28;13.10;;;9.10;91.20;;;;;;5039436;28;20029;-61
2021/11/06 06:34:03;;;;;;;68.00;13.02;;;9.10;91.20;;;;;;5039700;28;20041;-62
2021/11/06 06:36:29;;;;;;;79.53;12.95;;;9.10;91.20;;;;;;5040124;28;20025;-62
2021/11/06 06:38:55;;;;;;;84.65;13.32;;;9.10;91.20;;;;;;5041574;28;20467;-61
2021/11/06 06:41:20;;;;;;;60.08;13.02;;;9.10;91.30;;;;;;5037229;28;20487;-61
2021/11/06 06:43:46;;;;;;;58.90;12.75;;;9.10;91.40;;;;;;5039866;28;20483;-62
2021/11/06 06:46:11;;;;;;;56.05;12.35;;;9.10;91.40;;;;;;5041904;28;20178;-61
2021/11/06 06:48:37;;;;;;;43.55;12.18;;;9.10;91.40;;;;;;5045159;28;20079;-61
2021/11/06 06:51:03;;;;;;;40.85;12.05;;;9.10;91.40;;;;;;5045105;28;20348;-61
2021/11/06 06:53:28;;;;;;;60.67;12.93;;;9.10;91.40;;;;;;5042381;28;20599;-61
2021/11/06 06:55:54;;;;;;;45.85;13.02;;;9.10;91.40;;;;;;5042663;28;20049;-61
2021/11/06 06:58:19;;;;;;;53.05;12.30;;;9.10;91.50;;;;;;5043185;28;20025;-61
2021/11/06 07:00:45;;;;;;;42.20;11.65;;;9.10;91.40;;;;;;5043081;28;20400;-61
2021/11/06 07:03:10;;;;;;;45.45;12.07;;;9.10;91.50;;;;;;5041458;28;20078;-61
2021/11/06 07:05:36;;;;;;;45.53;11.50;;;9.10;91.40;;;;;;5044889;28;20512;-61
2021/11/06 07:08:04;;;;;;;47.40;12.48;;;9.10;91.40;;;;;;5041973;28;20029;-61
2021/11/06 07:10:29;;;;;;;78.80;13.05;;;9.10;91.40;;;;;;5040715;28;20025;-61
2021/11/06 07:12:55;;;;;;;56.28;11.80;;;9.10;91.50;;;;;;5041978;28;20045;-61
2021/11/06 07:15:20;;;;;;;55.30;11.57;;;9.20;91.50;;;;;;5043705;28;20384;-61
2021/11/06 07:17:46;;;;;;;47.72;11.98;;;9.10;91.40;;;;;;5041790;28;20071;-61
2021/11/06 07:20:14;;;;;;;47.88;10.98;;;9.10;91.40;;;;;;5043259;28;20032;-61
2021/11/06 07:22:40;;;;;;;38.95;10.85;;;9.10;91.40;;;;;;5041772;28;20041;-62
2021/11/06 07:25:06;;;;;;;42.55;11.65;;;9.10;91.30;;;;;;5043681;28;20131;-61
2021/11/06 07:27:31;;;;;;;50.67;11.30;;;9.10;91.30;;;;;;5043645;28;20128;-61
2021/11/06 07:29:58;;;;;;;42.85;11.25;;;9.10;91.30;;;;;;5040469;28;20234;-61
2021/11/06 07:32:23;;;;;;;49.15;12.20;;;9.10;91.30;;;;;;5040517;28;20098;-61
2021/11/06 07:34:49;;;;;;;43.30;11.38;;;9.10;91.30;;;;;;5042468;28;20036;-61
2021/11/06 07:37:14;;;;;;;44.75;11.30;;;9.10;91.30;;;;;;5040170;28;20419;-61
2021/11/06 07:39:40;;;;;;;38.58;11.23;;;9.10;91.30;;;;;;5040808;28;20044;-62
2021/11/06 07:42:06;;;;;;;38.22;10.65;;;9.10;91.30;;;;;;5040277;28;20048;-61
2021/11/06 07:44:31;;;;;;;46.03;10.50;;;9.10;91.30;;;;;;5041635;28;20696;-61
2021/11/06 07:46:57;;;;;;;29.40;9.18;;;9.10;91.30;;;;;;5042085;28;20108;-61
2021/11/06 07:49:22;;;;;;;28.35;10.80;;;9.10;91.30;;;;;;5041802;28;20029;-61
2021/11/06 07:51:48;;;;;;;36.15;10.65;;;9.20;91.30;;;;;;5038754;28;20035;-61
2021/11/06 07:54:13;;;;;;;34.13;10.43;;;9.10;91.20;;;;;;5039787;28;20029;-61
2021/11/06 07:56:39;;;;;;;33.08;10.88;;;9.10;91.20;;;;;;5042132;28;20044;-61
2021/11/06 07:59:07;;;;;;;29.02;9.52;;;9.20;91.20;;;;;;5040891;28;20044;-62
2021/11/06 08:01:33;;;;;;;31.33;10.32;;;9.10;91.20;;;;;;5036633;28;20056;-61
2021/11/06 08:03:58;;;;;;;29.45;9.95;;;9.10;91.20;;;;;;5038017;28;20029;-61
2021/11/06 08:06:24;;;;;;;37.65;11.32;;;9.20;91.20;;;;;;5037269;28;20528;-61
2021/11/06 08:08:49;;;;;;;32.55;10.48;;;9.30;91.20;;;;;;5039500;28;20047;-61
2021/11/06 08:11:16;;;;;;;26.73;10.05;;;9.10;91.10;;;;;;5041080;28;20052;-62
2021/11/06 08:13:42;;;;;;;23.38;9.38;;;9.10;91.10;;;;;;5032757;28;20053;-62
2021/11/06 08:16:07;;;;;;;26.55;9.45;;;9.10;91.00;;;;;;5041017;28;20196;-61
2021/11/06 08:18:33;;;;;;;17.02;9.02;;;9.10;91.00;;;;;;5038248;28;20187;-62
2021/11/06 08:20:58;;;;;;;18.17;9.57;;;9.10;91.00;;;;;;5040055;28;20267;-61
2021/11/06 08:23:24;;;;;;;22.92;8.90;;;9.10;91.00;;;;;;5036678;28;20146;-61
2021/11/06 08:25:50;;;;;;;22.05;9.18;;;9.10;90.90;;;;;;5041473;28;20017;-61
2021/11/06 08:28:16;;;;;;;23.20;9.82;;;9.10;91.00;;;;;;5037039;28;20079;-61
2021/11/06 08:30:41;;;;;;;12.93;9.07;;;9.10;90.90;;;;;;5034719;28;20056;-62
2021/11/06 08:33:07;;;;;;;24.98;9.35;;;9.00;90.90;;;;;;5037301;28;20100;-61
2021/11/06 08:35:32;;;;;;;20.65;9.57;;;9.00;90.90;;;;;;5038990;28;20037;-61
2021/11/06 08:37:58;;;;;;;19.15;9.73;;;9.00;90.90;;;;;;5042355;28;20032;-61
2021/11/06 08:40:25;;;;;;;22.08;9.05;;;9.00;90.90;;;;;;5037158;28;20037;-61
2021/11/06 08:42:50;;;;;;;17.70;8.25;;;9.00;90.80;;;;;;5037990;28;20043;-61
2021/11/06 08:45:16;;;;;;;13.50;9.05;;;9.00;90.80;;;;;;5040212;28;20048;-62
2021/11/06 08:47:42;;;;;;;16.60;9.00;;;9.00;90.80;;;;;;5042890;28;20421;-62
2021/11/06 08:50:13;;;;;;;17.50;9.25;;;9.00;90.70;;;;;;5038798;28;20029;-61
2021/11/06 08:52:39;;;;;;;12.77;9.48;;;9.00;90.80;;;;;;5034461;28;20452;-61
2021/11/06 08:55:05;;;;;;;11.48;8.98;;;8.90;90.70;;;;;;5040105;28;20032;-62
2021/11/06 08:57:31;;;;;;;13.10;9.60;;;8.90;90.70;;;;;;5040534;28;20155;-61
2021/11/06 09:00:05;;;;;;;18.38;8.85;;;8.90;90.70;;;;;;5040112;28;20112;-62
2021/11/06 09:02:30;;;;;;;16.95;8.77;;;9.00;90.80;;;;;;5040228;28;20072;-62
2021/11/06 09:04:56;;;;;;;18.10;8.80;;;8.90;90.80;;;;;;5039490;28;20129;-62
2021/11/06 09:07:21;;;;;;;17.85;9.65;;;9.00;90.70;;;;;;5041205;28;20025;-62
2021/11/06 09:09:47;;;;;;;14.93;9.00;;;9.00;90.70;;;;;;5036334;28;20139;-62
2021/11/06 09:12:12;;;;;;;20.40;9.65;;;9.00;90.60;;;;;;5039374;28;20021;-61
2021/11/06 09:14:38;;;;;;;16.58;9.23;;;9.00;90.60;;;;;;5019952;28;20476;-61
2021/11/06 09:17:04;;;;;;;24.42;9.45;;;9.00;90.60;;;;;;5033037;28;20024;-61
2021/11/06 09:19:29;;;;;;;23.30;10.20;;;9.00;90.60;;;;;;5038499;28;20114;-61
2021/11/06 09:21:55;;;;;;;23.20;9.65;;;9.10;90.70;;;;;;5038478;28;20017;-61
2021/11/06 09:24:20;;;;;;;40.22;11.48;;;9.10;90.60;;;;;;5035467;28;20543;-61
2021/11/06 09:26:46;;;;;;;35.45;9.60;;;9.10;90.60;;;;;;5034129;28;20025;-61
2021/11/06 09:29:13;;;;;;;34.42;10.77;;;9.10;90.50;;;;;;5039022;28;20110;-61
2021/11/06 09:31:39;;;;;;;28.83;10.70;;;9.10;90.50;;;;;;5041156;28;20151;-62
2021/11/06 09:34:07;;;;;;;37.90;12.88;;;9.10;90.50;;;;;;5039005;28;20021;-61
2021/11/06 09:36:33;;;;;;;55.38;13.45;;;9.20;90.50;;;;;;5031898;28;20045;-62
2021/11/06 09:39:01;;;;;;;50.60;11.68;;;9.20;90.50;;;;;;5031383;28;20036;-62
2021/11/06 09:41:27;;;;;;;59.20;11.85;;;9.20;90.50;;;;;;5035354;28;20029;-61
2021/11/06 09:43:52;;;;;;;71.00;13.80;;;9.20;90.50;;;;;;5036047;28;20094;-61
2021/11/06 09:46:18;;;;;;;102.63;16.55;;;9.30;90.50;;;;;;5035945;28;20032;-61
2021/11/06 09:48:44;;;;;;;69.18;14.35;;;9.30;90.40;;;;;;5038205;28;20141;-61
2021/11/06 09:51:10;;;;;;;110.32;18.17;;;9.30;90.40;;;;;;5035012;28;20131;-61
2021/11/06 09:53:40;;;;;;;110.38;18.25;;;9.40;90.40;;;;;;5038610;28;20041;-61
2021/11/06 09:56:06;;;;;;;73.97;12.85;;;9.40;90.30;;;;;;5037365;28;20024;-61
2021/11/06 09:58:32;;;;;;;113.40;18.05;;;9.40;90.30;;;;;;5035919;28;20071;-61
2021/11/06 10:00:58;;;;;;;93.55;17.65;;;9.50;90.30;;;;;;5036716;28;20454;-61
2021/11/06 10:03:23;;;;;;;129.07;17.58;;;9.50;90.20;;;;;;5033585;28;20057;-61
2021/11/06 10:05:56;;;;;;;105.03;16.13;;;9.30;90.20;;;;;;5038570;28;20049;-61
2021/11/06 10:08:34;;;;;;;75.15;14.80;;;9.60;90.20;;;;;;5038512;28;20032;-61
2021/11/06 10:11:09;;;;;;;110.05;17.70;;;9.60;90.20;;;;;;5035498;28;20134;-61
2021/11/06 10:13:49;;;;;;;125.57;18.93;;;9.60;90.30;;;;;;5015550;28;20033;-61
2021/11/06 10:16:16;;;;;;;129.70;19.45;;;9.60;90.40;;;;;;5036101;28;20713;-61
2021/11/06 10:18:41;;;;;;;206.60;26.63;;;9.70;90.50;;;;;;5036752;28;20025;-61
2021/11/06 10:21:07;;;;;;;146.77;19.50;;;9.70;90.60;;;;;;5023564;28;20349;-61
2021/11/06 10:23:38;;;;;;;145.82;21.88;;;9.70;90.60;;;;;;5019630;28;20662;-61
2021/11/06 10:26:07;;;;;;;130.50;20.60;;;9.80;90.80;;;;;;5038651;28;20021;-61
2021/11/06 10:28:33;;;;;;;105.65;17.88;;;9.80;90.60;;;;;;5042427;28;20080;-61
2021/11/06 10:31:01;;;;;;;121.32;20.48;;;9.80;90.50;;;;;;5041309;28;20144;-62
2021/11/06 10:33:27;;;;;;;141.02;18.45;;;9.90;90.50;;;;;;5036421;28;20156;-61
2021/11/06 10:35:52;;;;;;;150.85;18.98;;;9.90;90.40;;;;;;5038023;28;20103;-61
2021/11/06 10:38:23;;;;;;;140.65;20.40;;;9.90;90.40;;;;;;5035449;28;20056;-61
2021/11/06 10:40:55;;;;;;;129.13;18.58;;;9.90;90.40;;;;;;5038674;28;20128;-61
2021/11/06 10:43:22;;;;;;;122.80;19.70;;;9.90;90.40;;;;;;5039979;28;20036;-62
2021/11/06 10:45:49;;;;;;;125.72;17.77;;;10.00;90.40;;;;;;5039910;28;20111;-61
2021/11/06 10:48:16;;;;;;;136.45;21.05;;;10.00;90.40;;;;;;5038075;28;20110;-62
2021/11/06 10:50:58;;;;;;;112.88;16.33;;;10.00;90.40;;;;;;5041106;28;20045;-62
2021/11/06 10:53:34;;;;;;;166.05;21.23;;;10.10;90.50;;;;;;5041192;28;20098;-63
2021/11/06 10:56:00;;;;;;;;;;;10.10;90.50;;;;;;5043326;28;20045;-61
2021/11/06 10:58:26;;;;;;;;;;;10.10;90.50;;;;;;5038789;28;19966;-62
2021/11/06 11:01:00;;;;;;;133.15;18.13;;;10.10;90.40;;;;;;5039893;28;19947;-61
2021/11/06 11:03:34;;;;;;;104.82;14.88;;;10.20;90.50;;;;;;5039009;28;21301;-61
2021/11/06 11:06:01;;;;;;;108.70;15.65;;;10.20;90.30;;;;;;5019877;28;20029;-62
2021/11/06 11:08:27;;;;;;;93.30;17.08;;;10.30;90.30;;;;;;5033965;28;20048;-61
2021/11/06 11:10:53;;;;;;;100.80;14.85;;;10.20;90.20;;;;;;5036823;28;20021;-61
2021/11/06 11:13:21;;;;;;;75.18;13.38;;;10.20;90.20;;;;;;5039752;28;20036;-62
2021/11/06 11:15:51;;;;;;;87.43;13.88;;;10.20;90.10;;;;;;5019332;28;20128;-63
2021/11/06 11:18:33;;;;;;;85.95;15.15;;;10.20;90.00;;;;;;5038859;28;20021;-62
2021/11/06 11:21:10;;;;;;;70.85;13.85;;;10.30;90.00;;;;;;5040116;28;20029;-62
2021/11/06 11:23:37;;;;;;;82.50;13.23;;;10.30;90.00;;;;;;5040354;28;20045;-62
2021/11/06 11:26:02;;;;;;;70.38;12.77;;;10.30;90.20;;;;;;5027226;28;20159;-62
2021/11/06 11:28:28;;;;;;;92.07;13.07;;;10.30;90.20;;;;;;5039341;28;20112;-63
2021/11/06 11:30:54;;;;;;;93.40;14.23;;;10.30;90.20;;;;;;5037876;28;20041;-62
2021/11/06 11:33:20;;;;;;;99.18;14.30;;;10.30;89.70;;;;;;5023756;28;20029;-62
2021/11/06 11:35:46;;;;;;;59.60;12.38;;;10.40;89.60;;;;;;5019195;28;20037;-62
2021/11/06 11:38:12;;;;;;;91.75;14.50;;;10.30;89.20;;;;;;5042523;28;20056;-62
2021/11/06 11:40:37;;;;;;;252.98;30.75;;;10.40;89.30;;;;;;5041473;28;20076;-62
2021/11/06 11:43:26;;;;;;;116.13;15.80;;;10.40;89.30;;;;;;5023746;28;20075;-62
2021/11/06 11:46:03;;;;;;;79.03;13.60;;;10.40;89.40;;;;;;5040519;28;20104;-62
2021/11/06 11:48:29;;;;;;;134.02;18.27;;;10.40;89.40;;;;;;5041603;28;20068;-61
2021/11/06 11:50:58;;;;;;;93.65;13.10;;;10.40;89.30;;;;;;5039921;28;20116;-62
2021/11/06 11:53:26;;;;;;;103.45;15.85;;;10.40;89.30;;;;;;5039946;28;20039;-62
2021/11/06 11:55:55;;;;;;;164.07;18.30;;;10.40;89.30;;;;;;5042222;28;20029;-62
2021/11/06 11:58:37;;;;;;;109.07;14.93;;;10.40;89.50;;;;;;5035849;28;20135;-62
2021/11/06 12:01:04;;;;;;;59.25;11.88;;;10.40;89.40;;;;;;5040393;28;20037;-62
2021/11/06 12:03:34;;;;;;;97.38;12.30;;;10.50;89.40;;;;;;5003647;28;20147;-62
2021/11/06 12:06:00;;;;;;;104.93;14.32;;;10.50;89.20;;;;;;5035390;28;20048;-62
2021/11/06 12:08:28;;;;;;;114.40;14.68;;;10.50;89.00;;;;;;5040535;28;20590;-63
2021/11/06 12:10:59;;;;;;;97.38;15.13;;;10.50;89.10;;;;;;5037029;28;20048;-62
2021/11/06 12:15:59;;;;;;;57.20;10.93;;;10.50;89.00;;;;;;5039243;28;20052;-62
2021/11/06 12:18:37;;;;;;;132.27;16.42;;;10.50;88.80;;;;;;5040501;28;20021;-62
2021/11/06 12:21:10;;;;;;;87.93;15.63;;;10.60;88.60;;;;;;5038594;28;20128;-62
2021/11/06 12:23:34;;;;;;;115.10;16.88;;;10.60;88.50;;;;;;5034788;28;20045;-62
2021/11/06 12:26:16;;;;;;;91.85;14.25;;;10.60;88.20;;;;;;5024492;28;20564;-62
2021/11/06 12:28:41;;;;;;;101.03;14.02;;;10.60;88.10;;;;;;5023342;28;20053;-62
2021/11/06 12:31:30;;;;;;;99.78;13.55;;;10.60;88.10;;;;;;5022529;28;20057;-62
2021/11/06 12:33:57;;;;;;;184.05;21.63;;;10.60;88.10;;;;;;5039969;28;20244;-61
2021/11/06 12:36:23;;;;;;;74.47;13.25;;;10.60;88.10;;;;;;5021451;28;20025;-62